Latest Weather Observations for Thursday Island

IDQ60801

Issued at 8:52 pm EST Wednesday 19 September 2018 (issued every 10 minutes, with the page automatically refreshed every 10 minutes)

About weather observations | Map of weather stations | Latest weather observations for QLD | Other Formats
Station Details ID: 200892 Name: TORRES STRAIT NTC AWS Lat: -10.59 Lon: 142.22 Height: 3.0 m
Data from the previous 72 hours. | See also: Recent months for locations in Queensland
Date/Time
EST
Temp
°C
App
Temp
°C
Dew
Point
°C
Rel
Hum
%
Delta-T
°C
Wind Press
QNH
hPa
Press
MSL
hPa
Rain since
9am
mm
Dir  Spd
km/h
Gust
km/h
Spd
kts
Gust
kts
19/08:30pm 25.2 - - - - ESE 30 39 16 21 1011.4 1011.4 -
19/08:00pm 25.2 - - - - SE 32 41 17 22 1011.2 1011.2 -
19/07:30pm 25.3 - - - - SE 30 39 16 21 1010.8 1010.8 -
19/07:00pm 25.4 - - - - SE 30 43 16 23 1010.3 1010.3 -
19/06:30pm 25.6 - - - - ESE 33 46 18 25 1009.9 1009.9 -
19/06:00pm 25.7 - - - - ESE 30 39 16 21 1009.4 1009.4 -
19/05:30pm 26.0 - - - - ESE 33 43 18 23 1009.0 1009.0 -
19/05:00pm 25.9 - - - - ESE 32 44 17 24 1008.8 1008.8 -
19/04:30pm 26.0 - - - - ESE 39 48 21 26 1008.8 1008.8 -
19/04:00pm 26.0 - - - - ESE 35 56 19 30 1008.6 1008.6 -
19/03:57pm 26.1 - - - - ESE 35 56 19 30 1008.5 1008.5 -
19/03:30pm 26.0 - - - - ESE 35 48 19 26 1008.6 1008.6 -
19/03:00pm 26.3 - - - - ESE 37 46 20 25 1008.9 1008.9 -
19/02:30pm 26.2 - - - - ESE 35 46 19 25 1009.3 1009.3 -
19/02:00pm 26.0 - - - - ESE 39 48 21 26 1009.7 1009.7 -
19/01:30pm 26.1 - - - - ESE 33 46 18 25 1010.3 1010.3 -
19/01:00pm 26.3 - - - - ESE 37 50 20 27 1010.7 1010.7 -
19/12:30pm 26.1 - - - - ESE 32 48 17 26 1011.1 1011.1 -
19/12:00pm 26.1 - - - - ESE 30 48 16 26 1011.4 1011.4 -
19/11:30am 26.2 - - - - ESE 32 41 17 22 1012.0 1012.0 -
19/11:00am 26.1 - - - - ESE 33 44 18 24 1012.4 1012.4 -
19/10:30am 25.7 - - - - ESE 37 44 20 24 1012.8 1012.8 -
19/10:00am 25.6 - - - - SE 35 44 19 24 1013.1 1013.1 -
19/09:30am 25.8 - - - - ESE 32 41 17 22 1013.0 1013.0 -
19/09:00am 25.5 - - - - SE 35 44 19 24 1013.0 1013.0 -
19/08:30am 25.2 - - - - ESE 32 44 17 24 1012.7 1012.7 -
19/08:00am 25.1 - - - - ESE 30 39 16 21 1012.5 1012.5 -
19/07:30am 24.8 - - - - ESE 28 39 15 21 1012.2 1012.2 -
19/07:00am 24.6 - - - - ESE 28 35 15 19 1011.9 1011.9 -
19/06:30am 24.4 - - - - ESE 26 32 14 17 1011.3 1011.3 -
19/06:00am 24.4 - - - - ESE 28 33 15 18 1010.9 1010.9 -
19/05:30am 24.6 - - - - ESE 28 39 15 21 1010.5 1010.5 -
19/05:00am 24.5 - - - - ESE 26 35 14 19 1010.4 1010.4 -
19/04:30am 24.5 - - - - ESE 30 37 16 20 1010.4 1010.4 -
19/04:00am 24.6 - - - - ESE 30 37 16 20 1010.5 1010.5 -
19/03:30am 24.7 - - - - ESE 30 39 16 21 1010.5 1010.5 -
19/03:00am 24.6 - - - - ESE 30 39 16 21 1010.6 1010.6 -
19/02:30am 24.8 - - - - ESE 30 41 16 22 1010.7 1010.7 -
19/02:00am 24.9 - - - - ESE 33 46 18 25 1010.9 1010.9 -
19/01:30am 24.9 - - - - ESE 30 37 16 20 1010.9 1010.9 -
19/01:00am 24.8 - - - - ESE 30 37 16 20 1011.1 1011.1 -
19/12:30am 25.0 - - - - ESE 32 44 17 24 1011.5 1011.5 -
19/12:00am 25.0 - - - - ESE 30 41 16 22 1011.8 1011.8 -
 
Date/Time
EST
Temp
°C
App
Temp
°C
Dew
Point
°C
Rel
Hum
%
Delta-T
°C
Wind Press
QNH
hPa
Press
MSL
hPa
Rain since
9am
mm
Dir  Spd
km/h
Gust
km/h
Spd
kts
Gust
kts
18/11:53pm 25.1 - - - - ESE 32 50 17 27 1011.9 1011.9 -
18/11:30pm 25.2 - - - - ESE 33 43 18 23 1012.2 1012.2 -
18/11:00pm 25.2 - - - - ESE 33 43 18 23 1012.3 1012.3 -
18/10:30pm 25.2 - - - - ESE 32 43 17 23 1012.2 1012.2 -
18/10:00pm 25.2 - - - - ESE 30 44 16 24 1012.0 1012.0 -
18/09:30pm 25.2 - - - - ESE 28 37 15 20 1011.8 1011.8 -
18/09:00pm 25.1 - - - - SE 28 37 15 20 1011.7 1011.7 -
18/08:30pm 25.0 - - - - SE 26 33 14 18 1011.6 1011.6 -
18/08:00pm 25.2 - - - - SE 32 43 17 23 1011.3 1011.3 -
18/07:30pm 25.3 - - - - SE 28 35 15 19 1011.0 1011.0 -
18/07:00pm 25.5 - - - - SE 33 46 18 25 1010.8 1010.8 -
18/06:30pm 25.6 - - - - ESE 30 41 16 22 1010.5 1010.5 -
18/06:00pm 26.0 - - - - ESE 32 43 17 23 1010.2 1010.2 -
18/05:30pm 26.0 - - - - SE 32 43 17 23 1010.0 1010.0 -
18/05:00pm 26.1 - - - - ESE 35 43 19 23 1009.9 1009.9 -
18/04:30pm 26.3 - - - - SE 33 46 18 25 1010.0 1010.0 -
18/04:00pm 26.6 - - - - ESE 35 44 19 24 1009.9 1009.9 -
18/03:30pm 26.5 - - - - ESE 39 46 21 25 1010.2 1010.2 -
18/03:00pm 26.4 - - - - ESE 35 54 19 29 1010.5 1010.5 -
18/02:30pm 26.6 - - - - ESE 35 48 19 26 1010.6 1010.6 -
18/02:00pm 26.6 - - - - ESE 33 43 18 23 1010.9 1010.9 -
18/01:30pm 26.7 - - - - ESE 30 43 16 23 1011.3 1011.3 -
18/01:00pm 26.5 - - - - ESE 32 46 17 25 1011.7 1011.7 -
18/12:30pm 26.2 - - - - ESE 30 39 16 21 1012.2 1012.2 -
18/12:00pm 26.2 - - - - ESE 32 43 17 23 1012.6 1012.6 -
18/11:30am 26.3 - - - - ESE 32 43 17 23 1012.8 1012.8 -
18/11:00am 26.2 - - - - ESE 32 44 17 24 1013.3 1013.3 -
18/10:30am 25.7 - - - - ESE 35 43 19 23 1013.6 1013.6 -
18/10:00am 25.8 - - - - ESE 33 43 18 23 1013.7 1013.7 -
18/09:30am 25.6 - - - - ESE 35 44 19 24 1013.7 1013.7 -
18/09:00am 25.5 - - - - ESE 30 39 16 21 1013.5 1013.5 -
18/08:30am 25.2 - - - - ESE 26 33 14 18 1013.5 1013.5 -
18/08:00am 25.1 - - - - ESE 22 32 12 17 1013.1 1013.1 -
18/07:30am 24.9 - - - - ESE 24 32 13 17 1012.8 1012.8 -
18/07:00am 24.7 - - - - ESE 22 30 12 16 1012.4 1012.4 -
18/06:30am 24.3 - - - - ESE 19 24 10 13 1012.1 1012.1 -
18/06:00am 24.4 - - - - ESE 20 28 11 15 1011.8 1011.8 -
18/05:30am 24.3 - - - - ESE 19 26 10 14 1011.4 1011.4 -
18/05:00am 24.3 - - - - ESE 19 26 10 14 1011.1 1011.1 -
18/04:30am 24.5 - - - - ESE 24 32 13 17 1011.0 1011.0 -
18/04:00am 24.6 - - - - ESE 28 35 15 19 1010.9 1010.9 -
18/03:30am 24.6 - - - - ESE 26 33 14 18 1010.9 1010.9 -
18/03:00am 24.7 - - - - ESE 28 35 15 19 1010.9 1010.9 -
18/02:30am 24.8 - - - - ESE 26 35 14 19 1011.2 1011.2 -
18/02:00am 24.8 - - - - ESE 30 43 16 23 1011.3 1011.3 -
18/01:30am 24.8 - - - - ESE 24 39 13 21 1011.6 1011.6 -
18/01:00am 24.9 - - - - ESE 32 46 17 25 1011.8 1011.8 -
18/12:30am 24.9 - - - - ESE 32 41 17 22 1012.0 1012.0 -
18/12:00am 24.9 - - - - ESE 30 39 16 21 1012.3 1012.3 -
 
Date/Time
EST
Temp
°C
App
Temp
°C
Dew
Point
°C
Rel
Hum
%
Delta-T
°C
Wind Press
QNH
hPa
Press
MSL
hPa
Rain since
9am
mm
Dir  Spd
km/h
Gust
km/h
Spd
kts
Gust
kts
17/11:30pm 24.9 - - - - ESE 32 41 17 22 1012.2 1012.2 -
17/11:00pm 24.8 - - - - ESE 28 39 15 21 1012.3 1012.3 -
17/10:30pm 25.0 - - - - ESE 28 39 15 21 1012.4 1012.4 -
17/10:00pm 24.8 - - - - ESE 24 30 13 16 1012.3 1012.3 -
17/09:30pm 24.8 - - - - SE 24 35 13 19 1012.4 1012.4 -
17/09:00pm 24.7 - - - - SE 24 28 13 15 1012.2 1012.2 -
17/08:30pm 25.0 - - - - SE 22 32 12 17 1011.8 1011.8 -
17/08:00pm 24.9 - - - - SE 28 39 15 21 1011.4 1011.4 -
17/07:30pm 25.1 - - - - SE 22 33 12 18 1011.0 1011.0 -
17/07:00pm 25.3 - - - - ESE 26 35 14 19 1010.6 1010.6 -
17/06:30pm 25.5 - - - - ESE 26 35 14 19 1010.3 1010.3 -
17/06:00pm 25.9 - - - - ESE 30 39 16 21 1009.9 1009.9 -
17/05:30pm 26.2 - - - - ESE 33 41 18 22 1009.6 1009.6 -
17/05:00pm 26.2 - - - - ESE 32 41 17 22 1009.4 1009.4 -
17/04:30pm 26.1 - - - - E 30 39 16 21 1009.3 1009.3 -
17/04:00pm 26.2 - - - - E 32 37 17 20 1009.3 1009.3 -
17/03:30pm 26.1 - - - - E 28 35 15 19 1009.6 1009.6 -
17/03:00pm 26.2 - - - - E 26 32 14 17 1009.9 1009.9 -
17/02:30pm 25.6 - - - - E 24 35 13 19 1010.1 1010.1 -
17/02:00pm 25.7 - - - - E 20 30 11 16 1010.3 1010.3 -
17/01:30pm 25.8 - - - - ENE 22 30 12 16 1010.6 1010.6 -
17/01:00pm 26.2 - - - - E 19 26 10 14 1011.1 1011.1 -
17/12:30pm 25.4 - - - - ENE 24 33 13 18 1011.5 1011.5 -
17/12:00pm 26.5 - - - - E 20 30 11 16 1012.1 1012.1 -
17/11:30am 26.4 - - - - E 22 30 12 16 1012.5 1012.5 -
17/11:00am 25.7 - - - - ENE 20 26 11 14 1012.7 1012.7 -
17/10:30am 25.9 - - - - ESE 17 24 9 13 1013.0 1013.0 -
17/10:00am 25.7 - - - - ESE 13 19 7 10 1013.1 1013.1 -
17/09:30am 24.8 - - - - SSE 15 22 8 12 1013.0 1013.0 -
17/09:00am 25.0 - - - - SSE 17 22 9 12 1012.9 1012.9 -
17/08:30am 24.6 - - - - SSE 17 19 9 10 1012.7 1012.7 -
17/08:00am 24.1 - - - - SE 11 13 6 7 1012.6 1012.6 -
17/07:30am 23.6 - - - - SE 11 13 6 7 1012.4 1012.4 -
17/07:00am 23.3 - - - - SE 9 13 5 7 1012.0 1012.0 -
17/06:30am 23.3 - - - - SE 11 13 6 7 1011.5 1011.5 -
17/06:00am 23.3 - - - - SE 11 15 6 8 1011.2 1011.2 -
17/05:30am 23.5 - - - - SSE 17 19 9 10 1011.1 1011.1 -
17/05:00am 23.6 - - - - SSE 19 22 10 12 1011.0 1011.0 -
17/04:30am 23.6 - - - - SSE 19 22 10 12 1010.8 1010.8 -
17/04:00am 23.9 - - - - SSE 17 20 9 11 1010.7 1010.7 -
17/03:30am 24.0 - - - - SSE 15 19 8 10 1010.4 1010.4 -
17/03:00am 23.9 - - - - S 11 13 6 7 1010.5 1010.5 -
17/02:30am 23.9 - - - - S 9 11 5 6 1010.7 1010.7 -
17/02:00am 24.0 - - - - S 11 15 6 8 1010.8 1010.8 -
17/01:30am 24.3 - - - - S 11 13 6 7 1010.9 1010.9 -
17/01:00am 24.2 - - - - S 11 13 6 7 1011.1 1011.1 -
17/12:30am 24.4 - - - - SSE 13 15 7 8 1011.5 1011.5 -
17/12:00am 24.6 - - - - SSE 13 15 7 8 1011.8 1011.8 -
 
Date/Time
EST
Temp
°C
App
Temp
°C
Dew
Point
°C
Rel
Hum
%
Delta-T
°C
Wind Press
QNH
hPa
Press
MSL
hPa
Rain since
9am
mm
Dir  Spd
km/h
Gust
km/h
Spd
kts
Gust
kts
16/11:30pm 24.6 - - - - SSE 11 15 6 8 1012.0 1012.0 -
16/11:00pm 24.8 - - - - SE 9 11 5 6 1012.1 1012.1 -
16/10:30pm 24.8 - - - - SE 11 13 6 7 1012.1 1012.1 -
16/10:00pm 25.1 - - - - SE 17 20 9 11 1011.9 1011.9 -
16/09:30pm 25.3 - - - - SSE 20 26 11 14 1011.8 1011.8 -
16/09:00pm 25.4 - - - - SE 13 15 7 8 1011.5 1011.5 -

Other Formats:

Comma delimited format used in spreadsheet applications
http://www.bom.gov.au/fwo/IDQ60801/IDQ60801.94181.axf

JavaScript Object Notation format (JSON) in row-major order
http://www.bom.gov.au/fwo/IDQ60801/IDQ60801.94181.json